Time;durP1;ratioP1;P1;durP2;ratioP2;P2;SDS_P1;SDS_P2;PMS_P1;PMS_P2;Temp;Humidity;BMP_temperature;BMP_pressure;BME280_temperature;BME280_humidity;BME280_pressure;Samples;Min_cycle;Max_cycle;Signal;HPM_P1;HPM_P2
2022/01/23 00:00:40;;;;;;;;;;;3.60;99.90;;;;;;5117366;27;19911;-74
2022/01/23 00:03:10;;;;;;;;;;;3.60;99.90;;;;;;5121498;27;19952;-74
2022/01/23 00:05:39;;;;;;;;;;;3.50;99.90;;;;;;5119134;27;20242;-71
2022/01/23 00:08:10;;;;;;;;;;;3.60;99.90;;;;;;5123898;28;19955;-72
2022/01/23 00:10:36;;;;;;;;;;;3.60;99.90;;;;;;5123797;28;20280;-75
2022/01/23 00:13:17;;;;;;;;;;;3.70;99.90;;;;;;5125731;28;19915;-72
2022/01/23 00:18:47;;;;;;;;;;;3.60;99.90;;;;;;5086889;28;19918;-71
2022/01/23 00:21:12;;;;;;;;;;;3.50;99.90;;;;;;5073573;28;20351;-72
2022/01/23 00:31:34;;;;;;;;;;;3.30;99.90;;;;;;5124928;27;19972;-71
2022/01/23 00:33:59;;;;;;;;;;;3.20;99.90;;;;;;5128709;27;19996;-71
2022/01/23 00:36:26;;;;;;;;;;;3.20;99.90;;;;;;5130966;27;19916;-70
2022/01/23 00:38:51;;;;;;;;;;;3.20;99.90;;;;;;5130173;27;20395;-72
2022/01/23 00:41:17;;;;;;;;;;;3.20;99.90;;;;;;5125687;27;19959;-73
2022/01/23 00:43:44;;;;;;;;;;;3.30;99.90;;;;;;5133367;27;19929;-72
2022/01/23 00:51:37;;;;;;;;;;;3.00;99.90;;;;;;5098550;27;19950;-72
2022/01/23 00:54:04;;;;;;;;;;;3.00;99.90;;;;;;5127017;27;19924;-70
2022/01/23 00:56:30;;;;;;;;;;;3.00;99.90;;;;;;5127993;27;19993;-72
2022/01/23 00:58:56;;;;;;;;;;;3.00;99.90;;;;;;5124378;27;19912;-74
2022/01/23 01:01:21;;;;;;;;;;;3.00;99.90;;;;;;5130798;27;19943;-71
2022/01/23 01:03:47;;;;;;;;;;;2.90;99.90;;;;;;5128361;27;19920;-71
2022/01/23 01:06:13;;;;;;;;;;;2.90;99.90;;;;;;5127198;27;20350;-72
2022/01/23 01:08:40;;;;;;;;;;;2.80;99.90;;;;;;5123217;27;20588;-73
2022/01/23 01:13:53;;;;;;;;;;;2.90;99.90;;;;;;5127204;27;19984;-72
2022/01/23 01:32:47;;;;;;;;;;;3.10;99.90;;;;;;5126208;27;19923;-72
2022/01/23 01:35:27;;;;;;;;;;;3.10;99.90;;;;;;5126577;27;19919;-71
2022/01/23 01:37:53;;;;;;;;;;;3.00;99.90;;;;;;5118843;27;19912;-71
2022/01/23 01:40:20;;;;;;;;;;;2.90;99.90;;;;;;5131598;27;19912;-72
2022/01/23 01:42:46;;;;;;;;;;;2.90;99.90;;;;;;5126663;27;19919;-73
2022/01/23 01:45:12;;;;;;;;;;;2.80;99.90;;;;;;5126552;27;19934;-73
2022/01/23 01:47:38;;;;;;;;;;;2.80;99.90;;;;;;5121310;27;19919;-70
2022/01/23 01:50:04;;;;;;;;;;;2.80;99.90;;;;;;5128186;27;19957;-71
2022/01/23 01:52:32;;;;;;;;;;;2.80;99.90;;;;;;5128417;27;20002;-71
2022/01/23 01:55:02;;;;;;;;;;;2.80;99.90;;;;;;5125641;27;20142;-72
2022/01/23 01:57:39;;;;;;;;;;;2.90;99.90;;;;;;5127924;27;19912;-72
2022/01/23 02:03:07;;;;;;;;;;;3.00;99.90;;;;;;5125986;27;20373;-71
2022/01/23 02:10:49;;;;;;;;;;;2.80;99.90;;;;;;5129576;27;19907;-72
2022/01/23 02:13:18;;;;;;;;;;;2.80;99.90;;;;;;5127129;27;20375;-72
2022/01/23 02:56:47;;;;;;;;;;;3.10;99.90;;;;;;5122139;27;19919;-70
2022/01/23 02:59:21;;;;;;;;;;;3.10;99.90;;;;;;5126507;27;20088;-71
2022/01/23 03:02:01;;;;;;;;;;;3.10;99.90;;;;;;5124340;27;20028;-72
2022/01/23 03:04:27;;;;;;;;;;;3.20;99.90;;;;;;5117032;27;19928;-74
2022/01/23 03:14:55;;;;;;;;;;;3.00;99.90;;;;;;5125043;27;19950;-71
2022/01/23 03:26:26;;;;;;;;;;;3.00;99.90;;;;;;5125492;27;19918;-72
2022/01/23 03:28:26;;;;;;;;;;;3.00;99.90;;;;;;5123794;27;20350;-71
2022/01/23 03:33:30;;;;;;;;;;;2.90;99.90;;;;;;5124171;27;19935;-73
2022/01/23 03:35:56;;;;;;;;;;;2.80;99.90;;;;;;5128861;27;19914;-72
2022/01/23 03:38:21;;;;;;;;;;;2.80;99.90;;;;;;5122962;27;20291;-72
2022/01/23 03:40:47;;;;;;;;;;;2.80;99.90;;;;;;5129513;27;19914;-72
2022/01/23 03:43:15;;;;;;;;;;;2.70;99.90;;;;;;5125809;27;19911;-72
2022/01/23 03:50:50;;;;;;;;;;;2.60;99.90;;;;;;5123934;27;19923;-72
2022/01/23 03:53:16;;;;;;;;;;;2.70;99.90;;;;;;5128506;27;20300;-72
2022/01/23 03:55:42;;;;;;;;;;;2.70;99.90;;;;;;5126895;27;19986;-71
2022/01/23 03:58:08;;;;;;;;;;;2.70;99.90;;;;;;5125975;27;20474;-71
2022/01/23 04:00:33;;;;;;;;;;;2.70;99.90;;;;;;5126738;27;20424;-73
2022/01/23 04:02:59;;;;;;;;;;;2.80;99.90;;;;;;5125305;27;19916;-71
2022/01/23 04:05:25;;;;;;;;;;;2.70;99.90;;;;;;5123766;27;20002;-71
2022/01/23 04:07:50;;;;;;;;;;;2.80;99.90;;;;;;5121367;27;19933;-73
2022/01/23 04:10:19;;;;;;;;;;;2.80;99.90;;;;;;5128391;27;19912;-72
2022/01/23 04:15:22;;;;;;;;;;;2.90;99.90;;;;;;5122089;27;19927;-73
2022/01/23 04:34:17;;;;;;;;;;;2.90;99.90;;;;;;5126564;27;19922;-72
2022/01/23 04:45:19;;;;;;;;;;;2.90;99.90;;;;;;5123290;28;19965;-72
2022/01/23 05:01:24;;;;;;;;;;;2.90;99.90;;;;;;5123201;27;19922;-71
2022/01/23 05:06:28;;;;;;;;;;;2.80;99.90;;;;;;5125663;28;19955;-71
2022/01/23 05:08:53;;;;;;;;;;;2.90;99.90;;;;;;5125371;28;19964;-72
2022/01/23 05:11:19;;;;;;;;;;;2.90;99.90;;;;;;5123844;28;19911;-72
2022/01/23 05:13:46;;;;;;;;;;;2.90;99.90;;;;;;5121683;27;19927;-70
2022/01/23 05:16:12;;;;;;;;;;;2.90;99.90;;;;;;5132000;27;19919;-72
2022/01/23 05:18:38;;;;;;;;;;;3.00;99.90;;;;;;5130348;27;19911;-73
2022/01/23 05:23:51;;;;;;;;;;;2.90;99.90;;;;;;5121092;27;19912;-72
2022/01/23 05:26:17;;;;;;;;;;;2.90;99.90;;;;;;5128073;27;19957;-72
2022/01/23 05:28:42;;;;;;;;;;;2.90;99.90;;;;;;5128673;27;20293;-72
2022/01/23 05:31:08;;;;;;;;;;;2.90;99.90;;;;;;5130242;27;19911;-71
2022/01/23 05:33:34;;;;;;;;;;;2.90;99.90;;;;;;5133467;27;19916;-74
2022/01/23 05:35:59;;;;;;;;;;;2.90;99.90;;;;;;5130271;27;20443;-73
2022/01/23 05:38:25;;;;;;;;;;;2.90;99.90;;;;;;5126855;27;19912;-74
2022/01/23 05:40:56;;;;;;;;;;;2.90;99.90;;;;;;5127989;27;20376;-73
2022/01/23 05:43:22;;;;;;;;;;;2.90;99.90;;;;;;5129404;27;20006;-72
2022/01/23 05:45:49;;;;;;;;;;;2.90;99.90;;;;;;5130096;27;20449;-73
2022/01/23 05:48:14;;;;;;;;;;;2.90;99.90;;;;;;5123834;27;20427;-71
2022/01/23 05:50:40;;;;;;;;;;;2.90;99.90;;;;;;5122182;27;19919;-70
2022/01/23 05:53:06;;;;;;;;;;;2.90;99.90;;;;;;5130482;27;19915;-72
2022/01/23 05:55:31;;;;;;;;;;;2.90;99.90;;;;;;5124685;27;20397;-72
2022/01/23 05:57:57;;;;;;;;;;;2.90;99.90;;;;;;5130917;27;19923;-73
2022/01/23 06:00:22;;;;;;;;;;;2.90;99.90;;;;;;5130062;27;19919;-71
2022/01/23 06:02:48;;;;;;;;;;;2.90;99.90;;;;;;5124914;27;20467;-74
2022/01/23 06:05:14;;;;;;;;;;;3.00;99.90;;;;;;5126448;27;19923;-72
2022/01/23 06:07:42;;;;;;;;;;;2.90;99.90;;;;;;5129607;27;20264;-73
2022/01/23 06:10:15;;;;;;;;;;;2.90;99.90;;;;;;5128452;27;19911;-72
2022/01/23 06:12:42;;;;;;;;;;;2.90;99.90;;;;;;5132369;27;19911;-74
2022/01/23 06:15:08;;;;;;;;;;;3.00;99.90;;;;;;5125799;27;19965;-74
2022/01/23 06:17:34;;;;;;;;;;;3.00;99.90;;;;;;5124483;27;20261;-73
2022/01/23 06:20:01;;;;;;;;;;;2.90;99.90;;;;;;5130179;27;19937;-73
2022/01/23 06:22:26;;;;;;;;;;;2.90;99.90;;;;;;5130505;27;19918;-71
2022/01/23 06:24:52;;;;;;;;;;;2.90;99.90;;;;;;5130515;27;19968;-73
2022/01/23 06:27:18;;;;;;;;;;;2.80;99.90;;;;;;5124669;27;19949;-71
2022/01/23 06:29:44;;;;;;;;;;;2.80;99.90;;;;;;5133324;27;20320;-72
2022/01/23 06:32:10;;;;;;;;;;;2.80;99.90;;;;;;5127149;27;19977;-72
2022/01/23 06:34:36;;;;;;;;;;;2.80;99.90;;;;;;5127731;27;19915;-72
2022/01/23 06:37:01;;;;;;;;;;;2.80;99.90;;;;;;5127735;27;20272;-73
2022/01/23 06:39:27;;;;;;;;;;;2.80;99.90;;;;;;5129523;27;19907;-73
2022/01/23 06:41:53;;;;;;;;;;;2.80;99.90;;;;;;5130784;27;20533;-72
2022/01/23 06:44:19;;;;;;;;;;;2.80;99.90;;;;;;5127061;27;19908;-72
2022/01/23 06:46:44;;;;;;;;;;;2.80;99.90;;;;;;5126128;27;20086;-73
2022/01/23 06:49:10;;;;;;;;;;;2.90;99.90;;;;;;5132415;27;19988;-73
2022/01/23 06:51:36;;;;;;;;;;;2.90;99.90;;;;;;5117630;27;19922;-72
2022/01/23 06:54:02;;;;;;;;;;;2.90;99.90;;;;;;5126791;27;19916;-72
2022/01/23 06:56:28;;;;;;;;;;;3.00;99.90;;;;;;5128134;27;19919;-72
2022/01/23 06:58:54;;;;;;;;;;;2.90;99.90;;;;;;5128215;27;20304;-74
2022/01/23 07:01:20;;;;;;;;;;;3.00;99.90;;;;;;5131570;27;19922;-73
2022/01/23 07:03:45;;;;;;;;;;;3.10;99.90;;;;;;5129962;27;19911;-73
2022/01/23 07:06:11;;;;;;;;;;;3.10;99.90;;;;;;5129184;27;19916;-72
2022/01/23 07:08:37;;;;;;;;;;;3.10;99.90;;;;;;5131975;27;19953;-73
2022/01/23 07:11:02;;;;;;;;;;;3.10;99.90;;;;;;5125471;27;19918;-74
2022/01/23 07:13:28;;;;;;;;;;;3.10;99.90;;;;;;5130014;27;19977;-74
2022/01/23 07:15:54;;;;;;;;;;;3.20;99.90;;;;;;5122945;27;19972;-73
2022/01/23 07:18:21;;;;;;;;;;;3.20;99.90;;;;;;5127886;27;20013;-74
2022/01/23 07:20:47;;;;;;;;;;;3.30;99.90;;;;;;5122990;27;19911;-73
2022/01/23 07:23:13;;;;;;;;;;;3.30;99.90;;;;;;5126452;27;19964;-71
2022/01/23 07:25:41;;;;;;;;;;;3.40;99.90;;;;;;5129052;27;20403;-74
2022/01/23 07:28:12;;;;;;;;;;;3.50;99.90;;;;;;5130630;27;19912;-68
2022/01/23 07:30:48;;;;;;;;;;;3.50;99.90;;;;;;5118449;27;19911;-68
2022/01/23 07:33:14;;;;;;;;;;;3.60;99.90;;;;;;5128113;27;19915;-68
2022/01/23 07:35:39;;;;;;;;;;;3.60;99.90;;;;;;5120072;27;19920;-69
2022/01/23 07:38:05;;;;;;;;;;;3.70;99.90;;;;;;5122328;27;19912;-69
2022/01/23 07:40:31;;;;;;;;;;;3.70;99.90;;;;;;5123757;27;20373;-69
2022/01/23 07:42:56;;;;;;;;;;;3.80;99.90;;;;;;5113132;27;19948;-69
2022/01/23 07:45:22;;;;;;;;;;;3.80;99.90;;;;;;5116791;27;20423;-69
2022/01/23 07:47:48;;;;;;;;;;;4.00;99.90;;;;;;5117847;27;19912;-69
2022/01/23 07:50:14;;;;;;;;;;;4.00;99.90;;;;;;5127199;27;19964;-68
2022/01/23 07:52:41;;;;;;;;;;;4.10;99.90;;;;;;5120271;27;19927;-68
2022/01/23 07:55:09;;;;;;;;;;;4.10;99.90;;;;;;5131127;27;20425;-68
2022/01/23 07:57:35;;;;;;;;;;;4.20;99.90;;;;;;5126498;27;19920;-68
2022/01/23 08:00:01;;;;;;;;;;;4.30;99.90;;;;;;5121272;27;19912;-68
2022/01/23 08:02:26;;;;;;;;;;;4.40;99.90;;;;;;5118325;27;19934;-66
2022/01/23 08:04:52;;;;;;;;;;;4.50;99.90;;;;;;5117459;27;19915;-67
2022/01/23 08:09:56;;;;;;;;;;;4.60;99.90;;;;;;5126463;28;20068;-68
2022/01/23 08:12:22;;;;;;;;;;;4.70;99.90;;;;;;5123933;27;19978;-68
2022/01/23 08:14:48;;;;;;;;;;;4.90;99.90;;;;;;5128547;28;19911;-68
2022/01/23 08:17:13;;;;;;;;;;;5.00;99.90;;;;;;5121304;28;19919;-67
2022/01/23 08:19:39;;;;;;;;;;;5.20;99.90;;;;;;5127387;28;19915;-68
2022/01/23 08:22:05;;;;;;;;;;;5.40;99.90;;;;;;5116980;27;19919;-68
2022/01/23 08:24:30;;;;;;;;;;;5.50;99.90;;;;;;5121311;28;20005;-67
2022/01/23 08:26:56;;;;;;;;;;;5.60;99.90;;;;;;5122361;28;19922;-68
2022/01/23 08:29:21;;;;;;;;;;;5.80;99.90;;;;;;5125468;28;19963;-68
2022/01/23 08:31:47;;;;;;;;;;;5.90;99.90;;;;;;5129755;28;19947;-68
2022/01/23 08:34:13;;;;;;;;;;;6.00;99.90;;;;;;5127387;27;19915;-69
2022/01/23 08:36:43;;;;;;;;;;;6.20;99.90;;;;;;5124360;28;19916;-67
2022/01/23 08:39:21;;;;;;;;;;;6.30;99.90;;;;;;5118317;27;20296;-71
2022/01/23 08:41:50;;;;;;;;;;;6.60;99.90;;;;;;5117822;27;20294;-69
2022/01/23 08:44:17;;;;;;;;;;;6.80;99.90;;;;;;5127634;28;19911;-68
2022/01/23 08:46:42;;;;;;;;;;;6.90;99.90;;;;;;5123494;27;20010;-69
2022/01/23 08:49:08;;;;;;;;;;;6.90;99.90;;;;;;5131481;27;19950;-69
2022/01/23 08:51:34;;;;;;;;;;;7.10;99.90;;;;;;5125853;27;20418;-67
2022/01/23 08:54:06;;;;;;;;;;;7.10;99.90;;;;;;5120003;27;20369;-69
2022/01/23 08:56:33;;;;;;;;;;;7.00;99.90;;;;;;5107148;27;19912;-70
2022/01/23 08:59:03;;;;;;;;;;;7.10;99.90;;;;;;5130578;27;20258;-68
2022/01/23 09:01:32;;;;;;;;;;;7.10;99.90;;;;;;5119589;27;19912;-68
2022/01/23 09:03:57;;;;;;;;;;;7.40;99.90;;;;;;5128840;27;20312;-68
2022/01/23 09:06:42;;;;;;;;;;;7.60;99.90;;;;;;5132308;27;19915;-69
2022/01/23 09:09:15;;;;;;;;;;;7.70;99.90;;;;;;5125240;27;19932;-68
2022/01/23 09:11:53;;;;;;;;;;;8.00;99.90;;;;;;5120722;27;19916;-67
2022/01/23 09:14:20;;;;;;;;;;;8.10;99.90;;;;;;5123161;27;19922;-69
2022/01/23 09:17:02;;;;;;;;;;;8.30;99.90;;;;;;5125817;27;19964;-68
2022/01/23 09:19:34;;;;;;;;;;;8.60;99.90;;;;;;5124048;27;20015;-69
2022/01/23 09:22:00;;;;;;;;;;;8.90;99.90;;;;;;5126454;27;19955;-67
2022/01/23 09:24:26;;;;;;;;;;;9.10;99.90;;;;;;5125071;27;19915;-70
2022/01/23 09:26:53;;;;;;;;;;;9.00;99.90;;;;;;5124045;27;19927;-69
2022/01/23 09:29:29;;;;;;;;;;;9.10;99.90;;;;;;5121388;27;19939;-66
2022/01/23 09:31:55;;;;;;;;;;;9.20;99.90;;;;;;5123172;27;20388;-68
2022/01/23 09:34:23;;;;;;;;;;;9.30;99.90;;;;;;5128909;27;19915;-68
2022/01/23 09:37:01;;;;;;;;;;;9.30;99.90;;;;;;5119183;27;19919;-69
2022/01/23 09:39:27;;;;;;;;;;;9.30;99.90;;;;;;5117329;28;20011;-68
2022/01/23 09:42:09;;;;;;;;;;;9.20;99.90;;;;;;5133185;27;19918;-69
2022/01/23 09:44:53;;;;;;;;;;;9.20;99.90;;;;;;5116164;27;19911;-69
2022/01/23 09:47:20;;;;;;;;;;;9.20;99.90;;;;;;5125185;27;19947;-68
2022/01/23 09:49:52;;;;;;;;;;;9.20;99.90;;;;;;5121375;27;19911;-68
2022/01/23 09:52:29;;;;;;;;;;;9.10;99.90;;;;;;5129759;27;20021;-67
2022/01/23 09:54:57;;;;;;;;;;;9.00;99.90;;;;;;5121663;27;19937;-68
2022/01/23 09:57:25;;;;;;;;;;;9.00;99.90;;;;;;5118551;27;20314;-68
2022/01/23 09:59:57;;;;;;;;;;;9.10;99.90;;;;;;5121743;27;19912;-69
2022/01/23 10:02:24;;;;;;;;;;;9.20;99.90;;;;;;5118904;27;19912;-69
2022/01/23 10:05:00;;;;;;;;;;;9.30;99.90;;;;;;5119883;27;19920;-68
2022/01/23 10:07:28;;;;;;;;;;;9.30;99.90;;;;;;5126765;27;20185;-69
2022/01/23 10:10:10;;;;;;;;;;;9.50;99.90;;;;;;5122795;27;19938;-67
2022/01/23 10:12:40;;;;;;;;;;;9.60;99.90;;;;;;5126951;27;19911;-67
2022/01/23 10:15:08;;;;;;;;;;;9.70;99.90;;;;;;5116359;27;20381;-68
2022/01/23 10:17:34;;;;;;;;;;;9.70;99.90;;;;;;5123337;27;19919;-71
2022/01/23 10:20:01;;;;;;;;;;;9.80;99.90;;;;;;5120972;27;19926;-68
2022/01/23 10:22:26;;;;;;;;;;;9.80;99.90;;;;;;5119207;27;20284;-70
2022/01/23 10:24:52;;;;;;;;;;;9.70;99.90;;;;;;5124057;27;19911;-68
2022/01/23 10:27:22;;;;;;;;;;;9.70;99.90;;;;;;5123765;27;20126;-68
2022/01/23 10:29:48;;;;;;;;;;;9.70;99.90;;;;;;5131918;27;19912;-70
2022/01/23 10:32:22;;;;;;;;;;;9.70;99.90;;;;;;5114027;27;19912;-71
2022/01/23 10:34:59;;;;;;;;;;;9.70;99.90;;;;;;5124683;27;19915;-67
2022/01/23 10:37:35;;;;;;;;;;;9.60;99.90;;;;;;5118400;27;19915;-67
2022/01/23 10:40:06;;;;;;;;;;;9.50;99.90;;;;;;5127728;27;19946;-69
2022/01/23 10:50:52;;;;;;;;;;;9.20;99.90;;;;;;5132975;27;19914;-68
2022/01/23 10:53:18;;;;;;;;;;;9.30;99.90;;;;;;5127268;27;19919;-68
2022/01/23 10:55:46;;;;;;;;;;;9.30;99.90;;;;;;5126774;27;19911;-70
2022/01/23 10:58:19;;;;;;;;;;;9.40;99.90;;;;;;5132179;27;20044;-69
2022/01/23 11:00:45;;;;;;;;;;;9.40;99.90;;;;;;5129294;27;19912;-67
2022/01/23 11:03:13;;;;;;;;;;;9.40;99.90;;;;;;5128186;27;19917;-68
2022/01/23 11:05:40;;;;;;;;;;;9.40;99.90;;;;;;5127813;27;19923;-68
2022/01/23 11:08:19;;;;;;;;;;;9.30;99.90;;;;;;5129615;27;19912;-68
2022/01/23 11:10:54;;;;;;;;;;;9.20;99.90;;;;;;5116749;27;20338;-68
2022/01/23 11:19:17;;;;;;;;;;;9.50;99.90;;;;;;5129753;27;20241;-69
2022/01/23 11:21:43;;;;;;;;;;;9.50;99.90;;;;;;5116650;27;19945;-68
2022/01/23 11:24:11;;;;;;;;;;;9.60;99.90;;;;;;5128226;27;19977;-69
2022/01/23 11:26:37;;;;;;;;;;;9.60;99.90;;;;;;5126234;27;20261;-67
2022/01/23 11:29:17;;;;;;;;;;;9.50;99.90;;;;;;5126794;27;19922;-69
2022/01/23 11:31:43;;;;;;;;;;;9.50;99.90;;;;;;5129654;27;20311;-65
2022/01/23 11:34:10;;;;;;;;;;;9.80;99.90;;;;;;5128606;27;20373;-69
2022/01/23 11:36:36;;;;;;;;;;;9.90;99.90;;;;;;5124916;27;19919;-69
2022/01/23 11:39:11;;;;;;;;;;;9.90;99.90;;;;;;5129844;27;19911;-69
2022/01/23 11:55:37;;;;;;;;;;;10.00;99.90;;;;;;5127219;27;19956;-68
2022/01/23 11:58:04;;;;;;;;;;;9.90;99.90;;;;;;5118961;27;20003;-68
2022/01/23 12:00:32;;;;;;;;;;;9.80;99.90;;;;;;5127310;27;20377;-68
2022/01/23 12:03:13;;;;;;;;;;;9.80;99.90;;;;;;5125784;27;19911;-69
2022/01/23 12:05:41;;;;;;;;;;;9.80;99.90;;;;;;5123283;27;19973;-69
2022/01/23 12:08:18;;;;;;;;;;;9.80;99.90;;;;;;5126051;27;19998;-67
2022/01/23 12:11:38;;;;;;;;;;;9.80;99.90;;;;;;5128293;27;19966;-67
2022/01/23 12:16:53;;;;;;;;;;;9.80;99.90;;;;;;5120053;27;19912;-68
2022/01/23 12:19:20;;;;;;;;;;;9.70;99.90;;;;;;5123022;28;20443;-69
2022/01/23 12:21:46;;;;;;;;;;;9.70;99.90;;;;;;5128008;27;19919;-69
2022/01/23 12:24:14;;;;;;;;;;;9.70;99.90;;;;;;5133057;27;20010;-69
2022/01/23 12:26:43;;;;;;;;;;;9.80;99.90;;;;;;5127417;27;19969;-69
2022/01/23 12:29:23;;;;;;;;;;;9.80;99.90;;;;;;5135449;27;20239;-68
2022/01/23 12:31:49;;;;;;;;;;;9.80;99.90;;;;;;5130566;27;19911;-69
2022/01/23 12:34:15;;;;;;;;;;;9.90;99.90;;;;;;5125504;27;19922;-68
2022/01/23 12:36:41;;;;;;;;;;;9.80;99.90;;;;;;5131876;27;19911;-71
2022/01/23 12:39:06;;;;;;;;;;;9.70;99.90;;;;;;5129173;27;20429;-69
2022/01/23 12:41:39;;;;;;;;;;;9.80;99.90;;;;;;5129952;27;19911;-68
2022/01/23 12:44:06;;;;;;;;;;;9.80;99.90;;;;;;5128604;27;19912;-69
2022/01/23 12:46:34;;;;;;;;;;;9.70;99.90;;;;;;5128528;27;19916;-69
2022/01/23 12:49:19;;;;;;;;;;;9.60;99.90;;;;;;5129231;27;20006;-69
2022/01/23 12:51:45;;;;;;;;;;;9.60;99.90;;;;;;5133198;27;20377;-68
2022/01/23 12:54:18;;;;;;;;;;;9.70;99.90;;;;;;5128893;27;20013;-68
2022/01/23 12:56:46;;;;;;;;;;;9.60;99.90;;;;;;5129564;27;19940;-69
2022/01/23 12:59:19;;;;;;;;;;;9.60;99.90;;;;;;5127111;27;20341;-69
2022/01/23 13:01:46;;;;;;;;;;;9.70;99.90;;;;;;5131436;27;19963;-69
2022/01/23 13:04:12;;;;;;;;;;;9.60;99.90;;;;;;5133541;27;19991;-69
2022/01/23 13:06:50;;;;;;;;;;;9.60;99.90;;;;;;5127217;27;20006;-70
2022/01/23 13:09:20;;;;;;;;;;;9.60;99.90;;;;;;5128370;27;19911;-69
2022/01/23 13:12:09;;;;;;;;;;;9.70;99.90;;;;;;5130450;27;19918;-69
2022/01/23 13:31:01;;;;;;;;;;;9.70;99.90;;;;;;5132827;27;20281;-68
2022/01/23 13:33:27;;;;;;;;;;;9.80;99.90;;;;;;5130300;27;19968;-68
2022/01/23 13:35:53;;;;;;;;;;;9.70;99.90;;;;;;5133017;27;20326;-68
2022/01/23 13:38:21;;;;;;;;;;;9.70;99.90;;;;;;5122068;27;19980;-69
2022/01/23 13:40:56;;;;;;;;;;;9.70;99.90;;;;;;5127439;27;20462;-67
2022/01/23 13:59:37;;;;;;;;;;;9.70;99.90;;;;;;5129068;27;19918;-69
2022/01/23 14:02:15;;;;;;;;;;;9.70;99.90;;;;;;5124768;27;19957;-69
2022/01/23 14:04:43;;;;;;;;;;;9.60;99.90;;;;;;5133642;27;19922;-69
2022/01/23 14:07:08;;;;;;;;;;;9.70;99.90;;;;;;5131718;27;19918;-68
2022/01/23 14:09:43;;;;;;;;;;;9.70;99.90;;;;;;5127899;27;19920;-69
2022/01/23 14:12:13;;;;;;;;;;;9.70;99.90;;;;;;5129302;27;20404;-69
2022/01/23 14:14:48;;;;;;;;;;;9.70;99.90;;;;;;5129924;27;20384;-67
2022/01/23 14:17:14;;;;;;;;;;;9.60;99.90;;;;;;5122862;27;19912;-68
2022/01/23 14:19:40;;;;;;;;;;;9.60;99.90;;;;;;5131885;27;19974;-69
2022/01/23 14:22:06;;;;;;;;;;;9.60;99.90;;;;;;5128798;27;19938;-68
2022/01/23 14:24:36;;;;;;;;;;;9.50;99.90;;;;;;5130472;27;19918;-68
2022/01/23 14:27:09;;;;;;;;;;;9.50;99.90;;;;;;5127934;27;19911;-69
2022/01/23 14:29:49;;;;;;;;;;;9.50;99.90;;;;;;5132024;27;19964;-69
2022/01/23 14:32:24;;;;;;;;;;;9.40;99.90;;;;;;5128689;27;19912;-68
2022/01/23 14:34:50;;;;;;;;;;;9.40;99.90;;;;;;5130193;27;19924;-71
2022/01/23 14:37:24;;;;;;;;;;;9.50;99.90;;;;;;5131269;27;20003;-70
2022/01/23 14:39:49;;;;;;;;;;;9.50;99.90;;;;;;5128521;27;19916;-69
2022/01/23 14:42:20;;;;;;;;;;;9.50;99.90;;;;;;5129356;27;20381;-69
2022/01/23 14:44:46;;;;;;;;;;;9.50;99.90;;;;;;5125494;27;20358;-69
2022/01/23 14:47:12;;;;;;;;;;;9.50;99.90;;;;;;5130288;27;19918;-68
2022/01/23 14:49:38;;;;;;;;;;;9.50;99.90;;;;;;5130980;27;19911;-68
2022/01/23 14:52:09;;;;;;;;;;;9.50;99.90;;;;;;5131551;27;19968;-69
2022/01/23 14:54:35;;;;;;;;;;;9.50;99.90;;;;;;5130963;27;19916;-69
2022/01/23 14:57:02;;;;;;;;;;;9.50;99.90;;;;;;5111930;27;19915;-67
2022/01/23 14:59:31;;;;;;;;;;;9.40;99.90;;;;;;5127538;27;19911;-69
2022/01/23 15:01:58;;;;;;;;;;;9.40;99.90;;;;;;5130422;27;20003;-69
2022/01/23 15:04:24;;;;;;;;;;;9.30;99.90;;;;;;5130037;27;19963;-68
2022/01/23 15:06:52;;;;;;;;;;;9.30;99.90;;;;;;5127383;27;20326;-69
2022/01/23 15:09:18;;;;;;;;;;;9.20;99.90;;;;;;5122227;27;19912;-69
2022/01/23 15:11:44;;;;;;;;;;;9.20;99.90;;;;;;5125697;27;19949;-68
2022/01/23 15:14:10;;;;;;;;;;;9.10;99.90;;;;;;5130835;27;19926;-70
2022/01/23 15:16:36;;;;;;;;;;;9.20;99.90;;;;;;5126598;27;19912;-70
2022/01/23 15:19:02;;;;;;;;;;;9.10;99.90;;;;;;5124695;27;20344;-70
2022/01/23 15:21:28;;;;;;;;;;;9.10;99.90;;;;;;5125428;27;20090;-69
2022/01/23 15:23:56;;;;;;;;;;;9.10;99.90;;;;;;5129247;27;19994;-68
2022/01/23 15:26:25;;;;;;;;;;;9.00;99.90;;;;;;5122276;27;19926;-68
2022/01/23 15:28:51;;;;;;;;;;;9.00;99.90;;;;;;5130299;27;19916;-69
2022/01/23 15:31:16;;;;;;;;;;;9.00;99.90;;;;;;5130073;27;19917;-68
2022/01/23 15:33:42;;;;;;;;;;;8.90;99.90;;;;;;5128143;27;19921;-67
2022/01/23 15:36:08;;;;;;;;;;;8.90;99.90;;;;;;5131785;27;19918;-69
2022/01/23 15:38:36;;;;;;;;;;;8.90;99.90;;;;;;5125250;27;19915;-68
2022/01/23 15:41:01;;;;;;;;;;;9.10;99.90;;;;;;5120589;27;19912;-68
2022/01/23 15:43:27;;;;;;;;;;;9.10;99.90;;;;;;5123887;27;19911;-67
2022/01/23 15:45:53;;;;;;;;;;;9.00;99.90;;;;;;5118898;27;20305;-68
2022/01/23 15:48:19;;;;;;;;;;;9.00;99.90;;;;;;5115510;27;19927;-69
2022/01/23 15:50:45;;;;;;;;;;;8.90;99.90;;;;;;5116259;27;20010;-68
2022/01/23 15:53:10;;;;;;;;;;;8.90;99.90;;;;;;5122014;27;19946;-66
2022/01/23 15:55:36;;;;;;;;;;;8.90;99.90;;;;;;5132175;27;20501;-69
2022/01/23 15:58:02;;;;;;;;;;;8.90;99.90;;;;;;5122052;27;20386;-68
2022/01/23 16:00:28;;;;;;;;;;;9.10;99.90;;;;;;5123226;27;19994;-67
2022/01/23 16:02:53;;;;;;;;;;;9.10;99.90;;;;;;5114627;28;20427;-67
2022/01/23 16:05:19;;;;;;;;;;;9.00;99.90;;;;;;5120442;27;19998;-68
2022/01/23 16:07:45;;;;;;;;;;;9.00;99.90;;;;;;5124064;27;19912;-67
2022/01/23 16:10:11;;;;;;;;;;;8.90;99.90;;;;;;5131411;27;19912;-68
2022/01/23 16:12:41;;;;;;;;;;;8.80;99.90;;;;;;5125888;28;19912;-68
2022/01/23 16:15:08;;;;;;;;;;;8.70;99.90;;;;;;5124230;27;19912;-67
2022/01/23 16:17:34;;;;;;;;;;;8.60;99.90;;;;;;5119995;28;20341;-68
2022/01/23 16:20:02;;;;;;;;;;;8.50;99.90;;;;;;5118480;27;19940;-67
2022/01/23 16:22:27;;;;;;;;;;;8.60;99.90;;;;;;5121331;28;20525;-67
2022/01/23 16:24:53;;;;;;;;;;;8.50;99.90;;;;;;5131917;28;19915;-67
2022/01/23 16:27:19;;;;;;;;;;;8.50;99.90;;;;;;5125721;27;19919;-68
2022/01/23 16:29:44;;;;;;;;;;;8.50;99.90;;;;;;5130099;27;19908;-72
2022/01/23 16:32:10;;;;;;;;;;;8.50;99.90;;;;;;5128269;28;19922;-75
2022/01/23 16:34:36;;;;;;;;;;;8.60;99.90;;;;;;5124122;28;19919;-72
2022/01/23 16:37:02;;;;;;;;;;;8.50;99.90;;;;;;5129503;28;19922;-74
2022/01/23 16:39:28;;;;;;;;;;;8.40;99.90;;;;;;5130770;28;19964;-75
2022/01/23 16:41:54;;;;;;;;;;;8.30;99.90;;;;;;5131084;28;19915;-76
2022/01/23 16:44:23;;;;;;;;;;;8.20;99.90;;;;;;5133655;28;19912;-72
2022/01/23 16:46:49;;;;;;;;;;;8.20;99.90;;;;;;5125070;27;19912;-73
2022/01/23 16:49:15;;;;;;;;;;;8.20;99.90;;;;;;5131326;28;20323;-73
2022/01/23 16:51:40;;;;;;;;;;;8.20;99.90;;;;;;5128246;28;19998;-78
2022/01/23 16:54:07;;;;;;;;;;;8.10;99.90;;;;;;5131763;28;19911;-72
2022/01/23 16:56:33;;;;;;;;;;;8.00;99.90;;;;;;5122170;28;19915;-76
2022/01/23 16:58:59;;;;;;;;;;;8.20;99.90;;;;;;5126371;28;19915;-72
2022/01/23 17:01:24;;;;;;;;;;;8.10;99.90;;;;;;5125337;28;19918;-74
2022/01/23 17:03:50;;;;;;;;;;;8.00;99.90;;;;;;5131622;28;19907;-73
2022/01/23 17:06:16;;;;;;;;;;;8.00;99.90;;;;;;5129919;28;19938;-73
2022/01/23 17:08:43;;;;;;;;;;;7.90;99.90;;;;;;5130443;27;19911;-73
2022/01/23 17:11:08;;;;;;;;;;;7.90;99.90;;;;;;5130035;27;19908;-73
2022/01/23 17:13:34;;;;;;;;;;;7.90;99.90;;;;;;5127325;27;19939;-72
2022/01/23 17:15:59;;;;;;;;;;;8.00;99.90;;;;;;5123228;27;19925;-72
2022/01/23 17:18:25;;;;;;;;;;;8.00;99.90;;;;;;5113523;27;19916;-74
2022/01/23 17:20:51;;;;;;;;;;;8.00;99.90;;;;;;5128465;27;19908;-74
2022/01/23 17:23:17;;;;;;;;;;;7.70;99.90;;;;;;5124004;27;20484;-73
2022/01/23 17:25:43;;;;;;;;;;;7.70;99.90;;;;;;5126209;27;19998;-74
2022/01/23 17:28:09;;;;;;;;;;;7.60;99.90;;;;;;5119343;27;20019;-74
2022/01/23 17:30:34;;;;;;;;;;;7.70;99.90;;;;;;5125417;27;20384;-74
2022/01/23 17:33:00;;;;;;;;;;;7.70;99.90;;;;;;5130298;27;19920;-73
2022/01/23 17:35:25;;;;;;;;;;;7.70;99.90;;;;;;5132322;27;20388;-74
2022/01/23 17:37:51;;;;;;;;;;;7.60;99.90;;;;;;5127596;27;19908;-72
2022/01/23 17:40:17;;;;;;;;;;;7.60;99.90;;;;;;5128837;27;19918;-75
2022/01/23 17:42:43;;;;;;;;;;;7.50;99.90;;;;;;5120520;27;20019;-73
2022/01/23 17:45:12;;;;;;;;;;;7.30;99.90;;;;;;5134192;27;19958;-74
2022/01/23 17:50:20;;;;;;;;;;;7.30;99.90;;;;;;5133881;27;20005;-72
2022/01/23 17:52:50;;;;;;;;;;;7.10;99.90;;;;;;5126710;27;19912;-74
2022/01/23 17:55:16;;;;;;;;;;;6.80;99.90;;;;;;5129624;27;19919;-75
2022/01/23 17:57:42;;;;;;;;;;;6.70;99.90;;;;;;5131880;27;19916;-75
2022/01/23 18:00:08;;;;;;;;;;;6.50;99.90;;;;;;5134372;27;20373;-73
2022/01/23 18:02:35;;;;;;;;;;;6.50;99.90;;;;;;5124007;27;19911;-75
2022/01/23 18:05:00;;;;;;;;;;;6.70;99.90;;;;;;5125706;27;19965;-76
2022/01/23 18:07:26;;;;;;;;;;;6.80;99.90;;;;;;5128858;27;19912;-77
2022/01/23 18:09:54;;;;;;;;;;;6.90;99.90;;;;;;5131505;27;19918;-73
2022/01/23 18:12:20;;;;;;;;;;;7.20;99.90;;;;;;5132166;27;19916;-74
2022/01/23 18:14:48;;;;;;;;;;;7.30;99.90;;;;;;5131205;27;19922;-74
2022/01/23 18:17:14;;;;;;;;;;;7.30;99.90;;;;;;5114983;27;20373;-74
2022/01/23 18:19:40;;;;;;;;;;;7.30;99.90;;;;;;5129993;27;20397;-74